This is the latest recevied weather packets stored in our database for station/object N5MDT. If no packets are shown the sender has not sent any weather packets the latest 10 day(s).
| Time | Temp. | Humidity | Pressure | Rain* | Wind** | Luminosity | Snow |
|---|---|---|---|---|---|---|---|
| 1777436303 | 27.22° C | 75% | 1013.2 hPa | 0 mm | - | - | - |
| 1777435703 | 27.78° C | 74% | 1013.4 hPa | 0 mm | - | - | - |
| 1777435103 | 27.78° C | 74% | 1013.3 hPa | 0 mm | - | - | - |
| 1777434503 | 27.78° C | 74% | 1013.6 hPa | 0 mm | - | - | - |
| 1777433933 | 27.78° C | 74% | 1013.7 hPa | 0 mm | - | - | - |
| 1777433303 | 27.78° C | 74% | 1013.9 hPa | 0 mm | - | - | - |
| 1777432702 | 28.33° C | 73% | 1013.8 hPa | 0 mm | - | - | - |
| 1777432103 | 28.33° C | 73% | 1014.2 hPa | 0 mm | - | - | - |
| 1777431503 | 28.33° C | 73% | 1013.7 hPa | 0 mm | - | - | - |
| 1777428502 | 29.44° C | 71% | 1012.7 hPa | 0 mm | - | - | - |
| 1777427902 | 29.44° C | 70% | 1012.4 hPa | 0 mm | - | - | - |
| 1777425502 | 30.56° C | 68% | 1011.9 hPa | 0 mm | - | - | - |
| 1777424902 | 30.56° C | 67% | 1012.1 hPa | 0 mm | - | - | - |
| 1777410500 | 36.11° C | 55% | 1012.3 hPa | 0 mm | - | - | - |
| 1777404499 | 33.33° C | 59% | 1013.5 hPa | 0 mm | - | - | - |
| 1777403899 | 33.33° C | 59% | 1013.4 hPa | 0 mm | - | - | - |
| 1777403299 | 33.33° C | 60% | 1013.4 hPa | 0 mm | - | - | - |
| 1777397928 | 30.56° C | 67% | 1014.4 hPa | 0 mm | - | - | - |
| 1777397298 | 30.56° C | 67% | 1014.6 hPa | 0 mm | - | - | - |
| 1777396098 | 30° C | 68% | 1014.8 hPa | 0 mm | - | - | - |
| 1777395528 | 29.44° C | 70% | 1014.8 hPa | 0 mm | - | - | - |
| 1777394327 | 28.89° C | 72% | 1014.8 hPa | 0 mm | - | - | - |
| 1777390727 | 27.22° C | 78% | 1014.9 hPa | 0 mm | - | - | - |
| 1777387126 | 26.11° C | 84% | 1014.5 hPa | 0 mm | - | - | - |
| 1777386496 | 26.11° C | 85% | 1014.4 hPa | 0 mm | - | - | - |
* Rain latest hour (hover to see other rain measurements)
** Current wind speed in m/s (hover to see current wind gust speed)